Normanton, Australia
Current Conditions -  °F | °C
As of 12:30 AM on Sunday 23 Nov 2014 (Local Time) from YBMA Reporting Station
Scattered Clouds Scattered Clouds  
Wind Chill: 81°   Ceiling: Unl
Heat Index: 81°   Visibility: 6mi
Dew Point: 61°   Wind: 5mph
Humidity: 51%   Direction: 20°NNE
Pressure: 29.88"   Gusts: NA
Location:  17.67°S, 141.08°E
Report Text: YBMA 221430Z AUTO 02004KT 9999 // SCT100 27/16 Q1012
Loading
Personal Weather Stations






























Interactive Weather Map New forecast layout! Learn more

10-Day Weather Forecast

Advertisements
Track Severe Weather on mobile